createdAt,value
2023-03-02T00:00:01.354Z,6.10
2023-03-02T00:03:06.354Z,6.00
2023-03-02T00:06:10.544Z,6.00
2023-03-02T00:09:13.407Z,6.00
2023-03-02T00:12:17.663Z,6.00
2023-03-02T00:15:20.615Z,6.00
2023-03-02T00:18:23.491Z,6.00
2023-03-02T00:21:26.477Z,6.00
2023-03-02T00:24:29.525Z,6.00
2023-03-02T00:27:33.924Z,6.00
2023-03-02T00:30:38.404Z,6.00
2023-03-02T00:33:41.342Z,6.00
2023-03-02T00:36:44.462Z,6.00
2023-03-02T00:39:47.704Z,6.00
2023-03-02T00:42:51.982Z,6.00
2023-03-02T00:45:55.120Z,5.90
2023-03-02T00:48:57.968Z,5.90
2023-03-02T00:52:00.844Z,5.80
2023-03-02T00:55:03.771Z,5.80
2023-03-02T00:58:08.055Z,5.80
2023-03-02T01:01:12.828Z,5.70
2023-03-02T01:04:15.762Z,5.80
2023-03-02T01:07:20.750Z,5.80
2023-03-02T01:10:23.631Z,5.80
2023-03-02T01:13:28.191Z,5.80
2023-03-02T01:16:31.488Z,5.70
2023-03-02T01:19:35.140Z,5.70
2023-03-02T01:22:38.063Z,5.80
2023-03-02T01:25:40.996Z,5.80
2023-03-02T01:28:45.213Z,5.80
2023-03-02T01:31:48.157Z,5.80
2023-03-02T01:34:51.449Z,5.80
2023-03-02T01:37:54.367Z,5.80
2023-03-02T01:40:57.382Z,5.70
2023-03-02T01:44:01.618Z,5.70
2023-03-02T01:47:06.821Z,5.60
2023-03-02T01:50:20.100Z,5.60
2023-03-02T01:53:25.813Z,5.60
2023-03-02T01:56:34.707Z,5.50
2023-03-02T01:59:41.951Z,5.50
2023-03-02T02:02:44.891Z,5.50
2023-03-02T02:05:52.262Z,5.50
2023-03-02T02:08:58.171Z,5.40
2023-03-02T02:12:01.412Z,5.40
2023-03-02T02:15:07.241Z,5.40
2023-03-02T02:18:10.517Z,5.40
2023-03-02T02:21:13.880Z,5.40
2023-03-02T02:24:23.248Z,5.30
2023-03-02T02:27:29.868Z,5.30
2023-03-02T02:30:32.767Z,5.30
2023-03-02T02:33:37.746Z,5.30
2023-03-02T02:36:44.331Z,5.20
2023-03-02T02:39:49.782Z,5.10
2023-03-02T02:42:55.492Z,5.10
2023-03-02T02:46:00.090Z,5.10
2023-03-02T02:49:04.394Z,5.00
2023-03-02T02:52:08.364Z,5.00
2023-03-02T02:55:16.879Z,5.00
2023-03-02T02:58:29.689Z,5.00
2023-03-02T03:01:34.555Z,4.90
2023-03-02T03:04:37.518Z,4.90
2023-03-02T03:07:40.397Z,4.90
2023-03-02T03:10:44.952Z,4.80
2023-03-02T03:13:49.291Z,4.80
2023-03-02T03:16:52.898Z,4.80
2023-03-02T03:20:06.396Z,4.80
2023-03-02T03:23:09.372Z,4.80
2023-03-02T03:26:12.422Z,4.80
2023-03-02T03:29:17.866Z,4.80
2023-03-02T03:32:21.768Z,4.80
2023-03-02T03:35:24.815Z,4.80
2023-03-02T03:38:27.900Z,4.70
2023-03-02T03:41:30.760Z,4.70
2023-03-02T03:44:35.494Z,4.70
2023-03-02T03:47:38.587Z,4.70
2023-03-02T03:50:41.575Z,4.70
2023-03-02T03:53:44.678Z,4.70
2023-03-02T03:56:49.632Z,4.70
2023-03-02T03:59:54.445Z,4.70
2023-03-02T04:02:57.611Z,4.70
2023-03-02T04:06:00.527Z,4.60
2023-03-02T04:09:04.958Z,4.70
2023-03-02T04:12:09.080Z,4.60
2023-03-02T04:15:16.707Z,4.60
2023-03-02T04:18:19.559Z,4.60
2023-03-02T04:21:22.972Z,4.60
2023-03-02T04:24:26.024Z,4.60
2023-03-02T04:27:28.942Z,4.60
2023-03-02T04:30:33.780Z,4.50
2023-03-02T04:33:36.623Z,4.50
2023-03-02T04:36:40.696Z,4.50
2023-03-02T04:39:46.030Z,4.50
2023-03-02T04:42:49.106Z,4.60
2023-03-02T04:45:54.543Z,4.50
2023-03-02T04:48:57.607Z,4.50
2023-03-02T04:52:00.472Z,4.50
2023-03-02T04:55:03.742Z,4.40
2023-03-02T04:58:06.687Z,4.40
2023-03-02T05:01:12.666Z,4.40
2023-03-02T05:04:16.562Z,4.40
2023-03-02T05:07:19.714Z,4.40
2023-03-02T05:10:23.970Z,4.40
2023-03-02T05:13:27.340Z,4.40
2023-03-02T05:16:34.708Z,4.30
2023-03-02T05:19:37.897Z,4.30
2023-03-02T05:22:40.848Z,4.30
2023-03-02T05:25:43.725Z,4.30
2023-03-02T05:28:47.132Z,4.20
2023-03-02T05:31:51.666Z,4.20
2023-03-02T05:34:54.620Z,4.20
2023-03-02T05:37:57.531Z,4.10
2023-03-02T05:41:00.398Z,4.10
2023-03-02T05:44:03.551Z,4.10
2023-03-02T05:47:07.953Z,4.10
2023-03-02T05:50:11.987Z,4.10
2023-03-02T05:53:14.905Z,4.10
2023-03-02T05:56:18.024Z,4.00
2023-03-02T05:59:20.884Z,4.00
2023-03-02T06:02:25.130Z,4.00
2023-03-02T06:05:28.139Z,4.00
2023-03-02T06:08:31.467Z,4.00
2023-03-02T06:11:34.324Z,4.00
2023-03-02T06:14:37.584Z,4.00
2023-03-02T06:17:41.914Z,4.00
2023-03-02T06:20:45.085Z,4.00
2023-03-02T06:23:47.943Z,4.00
2023-03-02T06:26:50.800Z,4.00
2023-03-02T06:29:54.265Z,4.00
2023-03-02T06:32:59.844Z,4.00
2023-03-02T06:36:02.840Z,4.00
2023-03-02T06:39:05.821Z,4.00
2023-03-02T06:42:08.691Z,4.00
2023-03-02T06:45:12.520Z,4.00
2023-03-02T06:48:16.800Z,4.10
2023-03-02T06:51:19.701Z,4.10
2023-03-02T06:54:24.043Z,4.20
2023-03-02T06:57:33.560Z,4.20
2023-03-02T07:00:36.426Z,4.30
2023-03-02T07:03:40.793Z,4.30
2023-03-02T07:06:43.988Z,4.30
2023-03-02T07:09:46.852Z,4.40
2023-03-02T07:12:49.736Z,4.40
2023-03-02T07:15:53.563Z,4.50
2023-03-02T07:18:58.013Z,4.50
2023-03-02T07:22:00.866Z,4.60
2023-03-02T07:25:03.764Z,4.60
2023-03-02T07:28:06.718Z,4.70
2023-03-02T07:31:09.953Z,4.80
2023-03-02T07:34:15.331Z,4.80
2023-03-02T07:37:18.244Z,4.90
2023-03-02T07:40:21.120Z,5.00
2023-03-02T07:43:26.053Z,5.00
2023-03-02T07:46:28.930Z,5.00
2023-03-02T07:49:33.336Z,5.10
2023-03-02T07:52:36.375Z,5.10
2023-03-02T07:55:41.745Z,5.20
2023-03-02T07:58:44.939Z,5.30
2023-03-02T08:01:47.939Z,5.40
2023-03-02T08:04:53.226Z,5.50
2023-03-02T08:07:56.087Z,5.60
2023-03-02T08:11:05.492Z,5.60
2023-03-02T08:14:08.417Z,5.70
2023-03-02T08:17:11.293Z,5.80
2023-03-02T08:20:16.183Z,5.90
2023-03-02T08:23:19.156Z,5.80
2023-03-02T08:26:22.608Z,5.90
2023-03-02T08:29:25.529Z,5.90
2023-03-02T08:32:28.486Z,5.90
2023-03-02T08:35:32.801Z,6.00
2023-03-02T08:38:37.139Z,6.20
2023-03-02T08:41:40.028Z,6.30
2023-03-02T08:44:43.063Z,6.30
2023-03-02T08:47:46.299Z,6.40
2023-03-02T08:50:57.940Z,6.50
2023-03-02T08:54:00.844Z,6.70
2023-03-02T08:57:04.299Z,6.80
2023-03-02T09:00:11.040Z,6.90
2023-03-02T09:03:14.376Z,7.10
2023-03-02T09:06:19.020Z,7.00
2023-03-02T09:09:21.925Z,7.00
2023-03-02T09:12:24.851Z,7.10
2023-03-02T09:15:28.033Z,7.30
2023-03-02T09:18:32.008Z,7.40
2023-03-02T09:21:36.266Z,7.60
2023-03-02T09:24:39.162Z,7.70
2023-03-02T09:27:42.658Z,7.90
2023-03-02T09:30:50.299Z,8.00
2023-03-02T09:33:53.163Z,8.00
2023-03-02T09:36:57.519Z,8.00
2023-03-02T09:40:00.355Z,8.10
2023-03-02T09:43:16.378Z,8.10
2023-03-02T09:46:24.070Z,8.30
2023-03-02T09:49:47.618Z,8.50
2023-03-02T09:53:02.584Z,8.70
2023-03-02T09:56:14.472Z,9.00
2023-03-02T09:59:24.156Z,9.20
2023-03-02T10:02:30.658Z,9.30
2023-03-02T10:05:39.623Z,9.40
2023-03-02T10:08:43.908Z,9.60
2023-03-02T10:12:05.431Z,9.70
2023-03-02T10:15:15.484Z,9.70
2023-03-02T10:18:23.131Z,9.80
2023-03-02T10:21:32.136Z,9.90
2023-03-02T10:24:41.891Z,10.20
2023-03-02T10:27:51.321Z,10.30
2023-03-02T10:31:05.466Z,10.50
2023-03-02T10:34:11.205Z,10.70
2023-03-02T10:37:17.191Z,10.80
2023-03-02T10:40:34.652Z,10.90
2023-03-02T10:43:43.048Z,11.10
2023-03-02T10:46:47.745Z,11.10
2023-03-02T10:49:51.873Z,11.20
2023-03-02T10:52:59.990Z,11.20
2023-03-02T10:56:07.242Z,11.40
2023-03-02T10:59:53.241Z,11.70
2023-03-02T11:02:58.408Z,12.00
2023-03-02T11:06:13.492Z,12.00
2023-03-02T11:09:16.648Z,12.20
2023-03-02T11:12:21.128Z,12.40
2023-03-02T11:15:27.325Z,12.60
2023-03-02T11:18:35.219Z,12.50
2023-03-02T11:21:42.938Z,12.50
2023-03-02T11:24:51.059Z,12.70
2023-03-02T11:28:00.830Z,12.90
2023-03-02T11:31:07.696Z,13.20
2023-03-02T11:34:28.138Z,13.20
2023-03-02T11:37:40.712Z,13.40
2023-03-02T11:40:48.338Z,13.50
2023-03-02T11:43:53.674Z,13.60
2023-03-02T11:47:01.552Z,13.80
2023-03-02T11:50:08.027Z,13.90
2023-03-02T11:53:15.589Z,14.10
2023-03-02T11:56:18.533Z,14.20
2023-03-02T11:59:26.533Z,14.30
2023-03-02T12:02:30.498Z,14.50
2023-03-02T12:05:36.652Z,14.50
2023-03-02T12:08:42.411Z,14.60
2023-03-02T12:11:47.085Z,14.60
2023-03-02T12:14:52.463Z,14.80
2023-03-02T12:17:55.391Z,15.00
2023-03-02T12:21:03.954Z,15.30
2023-03-02T12:24:07.473Z,15.40
2023-03-02T12:27:26.832Z,15.40
2023-03-02T12:30:31.583Z,15.80
2023-03-02T12:33:42.315Z,16.00
2023-03-02T12:36:45.832Z,16.00
2023-03-02T12:40:26.393Z,16.10
2023-03-02T12:43:32.547Z,16.20
2023-03-02T12:46:40.392Z,16.40
2023-03-02T12:49:52.317Z,16.70
2023-03-02T12:52:59.639Z,16.80
2023-03-02T12:56:02.522Z,17.00
2023-03-02T12:59:05.819Z,17.00
2023-03-02T13:02:18.027Z,17.20
2023-03-02T13:05:23.376Z,17.40
2023-03-02T13:08:28.819Z,17.40
2023-03-02T13:11:34.626Z,17.60
2023-03-02T13:14:41.178Z,17.90
2023-03-02T13:17:46.424Z,18.00
2023-03-02T13:20:51.026Z,18.10
2023-03-02T13:23:54.167Z,18.20
2023-03-02T13:26:58.868Z,18.30
2023-03-02T13:30:10.941Z,18.40
2023-03-02T13:33:22.883Z,18.40
2023-03-02T13:36:28.822Z,18.50
2023-03-02T13:39:32.874Z,18.60
2023-03-02T13:42:38.646Z,18.70
2023-03-02T13:45:51.461Z,18.70
2023-03-02T13:49:09.163Z,18.70
2023-03-02T13:52:22.916Z,18.70
2023-03-02T13:55:26.539Z,18.70
2023-03-02T13:58:30.633Z,18.80
2023-03-02T14:01:33.749Z,18.80
2023-03-02T14:04:38.291Z,18.80
2023-03-02T14:07:41.622Z,18.80
2023-03-02T14:10:44.941Z,18.90
2023-03-02T14:13:53.169Z,18.90
2023-03-02T14:16:59.272Z,18.90
2023-03-02T14:20:04.088Z,19.00
2023-03-02T14:23:07.990Z,19.20
2023-03-02T14:26:28.315Z,19.20
2023-03-02T14:29:33.519Z,19.20
2023-03-02T14:32:36.771Z,19.10
2023-03-02T14:35:41.356Z,18.70
2023-03-02T14:38:44.995Z,18.30
2023-03-02T14:41:53.749Z,18.00
2023-03-02T14:44:59.250Z,17.80
2023-03-02T14:48:03.010Z,17.50
2023-03-02T14:51:16.470Z,17.40
2023-03-02T14:54:21.084Z,17.40
2023-03-02T14:57:26.293Z,17.30
2023-03-02T15:00:29.777Z,16.80
2023-03-02T15:03:32.999Z,16.70
2023-03-02T15:06:40.147Z,16.80
2023-03-02T15:09:44.074Z,16.70
2023-03-02T15:12:47.052Z,16.80
2023-03-02T15:15:50.045Z,16.70
2023-03-02T15:18:54.066Z,16.60
2023-03-02T15:21:58.385Z,16.10
2023-03-02T15:25:01.380Z,15.90
2023-03-02T15:28:05.097Z,15.80
2023-03-02T15:31:09.168Z,15.80
2023-03-02T15:34:12.489Z,15.80
2023-03-02T15:37:16.662Z,15.40
2023-03-02T15:40:19.706Z,15.40
2023-03-02T15:43:24.195Z,15.30
2023-03-02T15:46:27.222Z,15.00
2023-03-02T15:49:32.773Z,14.90
2023-03-02T15:52:36.957Z,14.80
2023-03-02T15:55:41.661Z,14.60
2023-03-02T15:58:47.986Z,14.60
2023-03-02T16:01:51.035Z,14.40
2023-03-02T16:04:53.874Z,14.10
2023-03-02T16:07:58.050Z,13.60
2023-03-02T16:11:02.628Z,13.40
2023-03-02T16:14:05.635Z,13.10
2023-03-02T16:17:09.469Z,12.80
2023-03-02T16:20:13.322Z,12.50
2023-03-02T16:23:17.526Z,12.40
2023-03-02T16:26:22.136Z,12.20
2023-03-02T16:29:25.178Z,12.10
2023-03-02T16:32:30.015Z,11.90
2023-03-02T16:35:34.453Z,11.90
2023-03-02T16:38:39.273Z,11.80
2023-03-02T16:41:44.587Z,11.80
2023-03-02T16:44:48.638Z,11.60
2023-03-02T16:47:52.127Z,11.40
2023-03-02T16:50:58.877Z,11.10
2023-03-02T16:54:03.340Z,11.10
2023-03-02T16:57:06.527Z,11.00
2023-03-02T17:00:14.273Z,10.70
2023-03-02T17:03:17.441Z,10.60
2023-03-02T17:06:23.011Z,10.50
2023-03-02T17:09:28.053Z,10.40
2023-03-02T17:12:31.245Z,10.40
2023-03-02T17:15:34.605Z,10.30
2023-03-02T17:18:37.577Z,10.30
2023-03-02T17:21:40.855Z,10.20
2023-03-02T17:24:45.354Z,10.20
2023-03-02T17:27:48.642Z,10.10
2023-03-02T17:30:51.835Z,9.80
2023-03-02T17:33:55.008Z,9.60
2023-03-02T17:36:59.514Z,9.60
2023-03-02T17:40:04.426Z,9.50
2023-03-02T17:43:08.335Z,9.30
2023-03-02T17:46:14.361Z,9.10
2023-03-02T17:49:17.243Z,8.90
2023-03-02T17:52:20.173Z,8.80
2023-03-02T17:55:24.345Z,8.80
2023-03-02T17:58:33.195Z,8.80
2023-03-02T18:01:45.873Z,9.00
2023-03-02T18:04:48.723Z,8.90
2023-03-02T18:07:52.663Z,8.90
2023-03-02T18:10:56.831Z,8.80
2023-03-02T18:13:59.717Z,8.90
2023-03-02T18:17:04.815Z,8.90
2023-03-02T18:20:08.585Z,8.80
2023-03-02T18:23:12.118Z,8.70
2023-03-02T18:26:17.109Z,8.60
2023-03-02T18:29:19.956Z,8.40
2023-03-02T18:32:23.184Z,8.50
2023-03-02T18:35:26.246Z,8.50
2023-03-02T18:38:30.970Z,8.60
2023-03-02T18:41:35.270Z,8.40
2023-03-02T18:44:38.644Z,8.30
2023-03-02T18:47:41.482Z,8.30
2023-03-02T18:50:44.682Z,8.30
2023-03-02T18:53:48.208Z,8.40
2023-03-02T18:56:52.687Z,8.40
2023-03-02T18:59:55.531Z,8.30
2023-03-02T19:02:58.461Z,8.40
2023-03-02T19:06:01.325Z,8.30
2023-03-02T19:09:04.288Z,8.30
2023-03-02T19:12:08.687Z,8.30
2023-03-02T19:15:13.112Z,8.20
2023-03-02T19:18:16.908Z,8.30
2023-03-02T19:21:19.752Z,8.30
2023-03-02T19:24:22.579Z,8.20
2023-03-02T19:27:27.424Z,8.20
2023-03-02T19:30:30.512Z,8.30
2023-03-02T19:33:33.722Z,8.20
2023-03-02T19:36:36.609Z,8.20
2023-03-02T19:39:39.454Z,8.00
2023-03-02T19:42:45.422Z,7.90
2023-03-02T19:45:48.437Z,7.90
2023-03-02T19:48:51.406Z,7.80
2023-03-02T19:51:55.794Z,7.80
2023-03-02T19:54:58.637Z,7.80
2023-03-02T19:58:05.030Z,7.70
2023-03-02T20:01:10.647Z,7.70
2023-03-02T20:04:13.788Z,7.60
2023-03-02T20:07:16.997Z,7.60
2023-03-02T20:10:27.516Z,7.60
2023-03-02T20:13:33.072Z,7.60
2023-03-02T20:16:38.760Z,7.60
2023-03-02T20:19:41.738Z,7.50
2023-03-02T20:22:45.458Z,7.50
2023-03-02T20:25:48.620Z,7.50
2023-03-02T20:28:55.444Z,7.30
2023-03-02T20:31:58.911Z,7.30
2023-03-02T20:35:01.848Z,7.30
2023-03-02T20:38:08.156Z,7.10
2023-03-02T20:41:11.816Z,7.20
2023-03-02T20:44:16.321Z,7.30
2023-03-02T20:47:19.732Z,7.30
2023-03-02T20:50:26.299Z,7.30
2023-03-02T20:53:29.684Z,7.20
2023-03-02T20:56:32.592Z,7.20
2023-03-02T20:59:37.624Z,7.10
2023-03-02T21:02:40.464Z,7.20
2023-03-02T21:05:43.926Z,7.30
2023-03-02T21:08:47.441Z,7.20
2023-03-02T21:11:50.288Z,7.10
2023-03-02T21:14:55.075Z,7.10
2023-03-02T21:17:59.240Z,7.00
2023-03-02T21:21:02.635Z,6.90
2023-03-02T21:24:05.955Z,6.80
2023-03-02T21:27:08.964Z,6.70
2023-03-02T21:30:17.565Z,6.60
2023-03-02T21:33:20.455Z,6.60
2023-03-02T21:36:24.842Z,6.50
2023-03-02T21:39:27.676Z,6.40
2023-03-02T21:42:30.542Z,6.40
2023-03-02T21:45:35.916Z,6.40
2023-03-02T21:48:39.029Z,6.50
2023-03-02T21:51:41.936Z,6.50
2023-03-02T21:54:44.911Z,6.50
2023-03-02T21:57:48.365Z,6.40
2023-03-02T22:00:52.759Z,6.30
2023-03-02T22:03:56.039Z,6.40
2023-03-02T22:06:58.908Z,6.50
2023-03-02T22:10:01.873Z,6.50
2023-03-02T22:13:17.995Z,6.50
2023-03-02T22:16:24.220Z,6.60
2023-03-02T22:19:29.478Z,6.70
2023-03-02T22:22:32.334Z,6.70
2023-03-02T22:25:35.197Z,6.70
2023-03-02T22:28:41.024Z,6.60
2023-03-02T22:31:47.681Z,6.50
2023-03-02T22:34:53.269Z,6.60
2023-03-02T22:38:02.466Z,6.60
2023-03-02T22:41:07.374Z,6.40
2023-03-02T22:44:12.593Z,6.40
2023-03-02T22:47:19.890Z,6.50
2023-03-02T22:50:24.545Z,6.40
2023-03-02T22:53:30.018Z,6.40
2023-03-02T22:56:37.027Z,6.40
2023-03-02T22:59:39.963Z,6.40
2023-03-02T23:02:46.087Z,6.40
2023-03-02T23:05:51.567Z,6.40
2023-03-02T23:08:56.195Z,6.40
2023-03-02T23:12:02.395Z,6.50
2023-03-02T23:15:18.176Z,6.50
2023-03-02T23:18:25.333Z,6.50
2023-03-02T23:21:31.226Z,6.50
2023-03-02T23:24:34.442Z,6.50
2023-03-02T23:27:37.359Z,6.50
2023-03-02T23:30:40.479Z,6.40
2023-03-02T23:33:44.954Z,6.40
2023-03-02T23:36:47.815Z,6.40
2023-03-02T23:39:50.626Z,6.40
2023-03-02T23:42:53.432Z,6.30
2023-03-02T23:45:56.308Z,6.40
2023-03-02T23:49:00.585Z,6.20
2023-03-02T23:52:03.644Z,6.20
2023-03-02T23:55:07.482Z,6.30
2023-03-02T23:58:10.535Z,6.30
